createdAt,value
2016-11-23T00:00:20.800Z,79.7
2016-11-23T00:01:21.165Z,80
2016-11-23T00:02:21.531Z,79.9
2016-11-23T00:03:21.896Z,79.8
2016-11-23T00:04:22.264Z,79.6
2016-11-23T00:05:22.624Z,79.8
2016-11-23T00:06:22.981Z,79.8
2016-11-23T00:07:23.337Z,79.8
2016-11-23T00:08:23.701Z,79.8
2016-11-23T00:09:24.072Z,80
2016-11-23T00:10:24.441Z,79.5
2016-11-23T00:11:24.835Z,80.3
2016-11-23T00:12:25.200Z,80.1
2016-11-23T00:13:25.556Z,80.4
2016-11-23T00:14:25.919Z,80.3
2016-11-23T00:15:26.288Z,80.3
2016-11-23T00:16:26.659Z,80
2016-11-23T00:17:27.017Z,80.3
2016-11-23T00:18:27.385Z,80.2
2016-11-23T00:19:27.742Z,80.1
2016-11-23T00:20:28.114Z,80.2
2016-11-23T00:21:28.486Z,80.3
2016-11-23T00:22:28.859Z,80
2016-11-23T00:23:29.228Z,80.2
2016-11-23T00:24:29.589Z,80.2
2016-11-23T00:25:29.953Z,80.4
2016-11-23T00:26:30.312Z,80.6
2016-11-23T00:27:30.669Z,80
2016-11-23T00:28:31.038Z,80.4
2016-11-23T00:29:31.414Z,79.8
2016-11-23T00:30:31.781Z,80.9
2016-11-23T00:31:32.150Z,80.6
2016-11-23T00:32:32.514Z,80.8
2016-11-23T00:33:32.874Z,80.7
2016-11-23T00:34:33.230Z,80.3
2016-11-23T00:35:33.591Z,80.8
2016-11-23T00:36:33.955Z,80.4
2016-11-23T00:37:34.329Z,80.4
2016-11-23T00:38:34.694Z,80
2016-11-23T00:39:35.072Z,80
2016-11-23T00:40:35.471Z,80.2
2016-11-23T00:41:35.830Z,79.9
2016-11-23T00:42:36.186Z,80
2016-11-23T00:43:36.545Z,80.3
2016-11-23T00:44:36.942Z,80.3
2016-11-23T00:45:37.313Z,80.2
2016-11-23T00:46:37.686Z,80.2
2016-11-23T00:47:38.053Z,80.3
2016-11-23T00:48:38.423Z,80.3
2016-11-23T00:49:38.786Z,80.4
2016-11-23T00:50:39.142Z,80.4
2016-11-23T00:51:39.504Z,80.3
2016-11-23T00:52:39.871Z,80.4
2016-11-23T00:53:40.247Z,80.4
2016-11-23T00:54:40.617Z,80.3
2016-11-23T00:55:40.989Z,80.2
2016-11-23T00:56:41.350Z,80.2
2016-11-23T00:57:41.715Z,80.2
2016-11-23T00:58:42.079Z,80
2016-11-23T00:59:43.086Z,80.1
2016-11-23T01:00:43.448Z,80.1
2016-11-23T01:01:43.818Z,80.4
2016-11-23T01:02:44.188Z,80.2
2016-11-23T01:03:44.557Z,80.1
2016-11-23T01:04:44.917Z,80.2
2016-11-23T01:05:45.276Z,80.1
2016-11-23T01:06:45.664Z,80.3
2016-11-23T01:07:46.025Z,80.2
2016-11-23T01:08:46.389Z,80.2
2016-11-23T01:09:46.761Z,80.3
2016-11-23T01:10:47.132Z,80.2
2016-11-23T01:11:47.499Z,80.2
2016-11-23T01:12:47.862Z,80.3
2016-11-23T01:13:48.222Z,81.1
2016-11-23T01:14:48.575Z,81.1
2016-11-23T01:15:48.935Z,80.2
2016-11-23T01:16:49.295Z,81.1
2016-11-23T01:17:49.661Z,81
2016-11-23T01:18:50.029Z,81.2
2016-11-23T01:19:50.389Z,80.7
2016-11-23T01:20:50.755Z,80.9
2016-11-23T01:21:51.123Z,80.8
2016-11-23T01:22:51.513Z,80.8
2016-11-23T01:23:51.885Z,80.9
2016-11-23T01:24:52.251Z,81
2016-11-23T01:25:52.611Z,81.1
2016-11-23T01:26:52.976Z,80.7
2016-11-23T01:27:53.334Z,80.8
2016-11-23T01:28:53.695Z,81
2016-11-23T01:29:54.165Z,81
2016-11-23T01:30:54.533Z,81
2016-11-23T01:31:54.897Z,80.8
2016-11-23T01:32:55.264Z,80.9
2016-11-23T01:33:55.627Z,80.7
2016-11-23T01:34:55.983Z,81
2016-11-23T01:35:56.343Z,80.9
2016-11-23T01:36:56.740Z,80.6
2016-11-23T01:37:57.109Z,80.8
2016-11-23T01:38:57.480Z,81
2016-11-23T01:39:57.847Z,80.8
2016-11-23T01:40:58.206Z,80.9
2016-11-23T01:41:58.565Z,81
2016-11-23T01:42:58.923Z,80.9
2016-11-23T01:43:59.283Z,81
2016-11-23T01:44:59.645Z,81
2016-11-23T01:46:00.017Z,81.2
2016-11-23T01:47:00.383Z,80.9
2016-11-23T01:48:00.754Z,81
2016-11-23T01:49:01.120Z,81
2016-11-23T01:50:01.485Z,80.9
2016-11-23T01:51:01.847Z,81.1
2016-11-23T01:52:02.223Z,81.1
2016-11-23T01:53:02.595Z,81.1
2016-11-23T01:54:02.956Z,80.9
2016-11-23T01:55:03.313Z,80.9
2016-11-23T01:56:03.672Z,81
2016-11-23T01:57:04.036Z,80.9
2016-11-23T01:58:04.412Z,81
2016-11-23T01:59:04.790Z,81
2016-11-23T02:00:05.262Z,81
2016-11-23T02:01:05.629Z,81.1
2016-11-23T02:02:05.985Z,81
2016-11-23T02:03:06.341Z,81
2016-11-23T02:04:06.705Z,80.9
2016-11-23T02:05:07.075Z,81.2
2016-11-23T02:06:07.445Z,80.9
2016-11-23T02:07:07.809Z,80.8
2016-11-23T02:08:08.175Z,81.1
2016-11-23T02:09:08.536Z,80.9
2016-11-23T02:10:08.894Z,81
2016-11-23T02:11:09.254Z,81.4
2016-11-23T02:12:09.614Z,81.1
2016-11-23T02:13:09.977Z,81.4
2016-11-23T02:14:10.345Z,81.3
2016-11-23T02:15:10.720Z,81.1
2016-11-23T02:16:11.095Z,81.6
2016-11-23T02:17:11.459Z,81.6
2016-11-23T02:18:11.819Z,81.8
2016-11-23T02:19:12.184Z,81.6
2016-11-23T02:20:12.544Z,81.5
2016-11-23T02:21:12.909Z,81.1
2016-11-23T02:22:13.277Z,81.3
2016-11-23T02:23:13.637Z,81.3
2016-11-23T02:24:13.994Z,81.5
2016-11-23T02:25:14.358Z,81.2
2016-11-23T02:26:14.729Z,81.4
2016-11-23T02:27:15.098Z,81.2
2016-11-23T02:28:15.465Z,81.3
2016-11-23T02:29:15.825Z,81.6
2016-11-23T02:30:16.283Z,81.5
2016-11-23T02:31:16.661Z,81.2
2016-11-23T02:32:17.018Z,81.4
2016-11-23T02:33:17.382Z,81.4
2016-11-23T02:34:17.751Z,81.4
2016-11-23T02:35:18.118Z,81.3
2016-11-23T02:36:18.489Z,81.2
2016-11-23T02:37:18.853Z,81.3
2016-11-23T02:38:19.214Z,81.2
2016-11-23T02:39:19.572Z,81.2
2016-11-23T02:40:19.928Z,81.5
2016-11-23T02:41:20.305Z,81.7
2016-11-23T02:42:20.671Z,81.6
2016-11-23T02:43:21.039Z,81.1
2016-11-23T02:44:21.411Z,81.6
2016-11-23T02:45:21.801Z,81.6
2016-11-23T02:46:22.163Z,81.5
2016-11-23T02:47:22.522Z,81.6
2016-11-23T02:48:22.879Z,81.6
2016-11-23T02:49:23.249Z,81.8
2016-11-23T02:50:23.615Z,81.7
2016-11-23T02:51:23.985Z,81.7
2016-11-23T02:52:24.353Z,81.9
2016-11-23T02:53:24.715Z,81.4
2016-11-23T02:54:25.070Z,81.5
2016-11-23T02:55:25.435Z,81.5
2016-11-23T02:56:25.800Z,81.5
2016-11-23T02:57:26.167Z,81.6
2016-11-23T02:58:26.530Z,81.6
2016-11-23T02:59:26.894Z,81.6
2016-11-23T03:00:27.356Z,81.3
2016-11-23T03:01:27.720Z,81.4
2016-11-23T03:02:28.087Z,81.5
2016-11-23T03:03:28.456Z,81.5
2016-11-23T03:04:28.825Z,81.3
2016-11-23T03:05:29.193Z,81.6
2016-11-23T03:06:29.552Z,81.7
2016-11-23T03:07:29.910Z,81.3
2016-11-23T03:08:30.271Z,81.4
2016-11-23T03:09:30.633Z,81.5
2016-11-23T03:10:31.004Z,81.3
2016-11-23T03:11:31.372Z,81.5
2016-11-23T03:12:31.744Z,81.5
2016-11-23T03:13:32.109Z,81.5
2016-11-23T03:14:32.475Z,81.4
2016-11-23T03:15:32.834Z,81.7
2016-11-23T03:16:33.191Z,81.4
2016-11-23T03:17:33.554Z,81.5
2016-11-23T03:18:33.921Z,81.7
2016-11-23T03:19:34.288Z,81.5
2016-11-23T03:20:34.653Z,81.5
2016-11-23T03:21:35.019Z,81.5
2016-11-23T03:22:35.375Z,81.4
2016-11-23T03:23:35.763Z,81.5
2016-11-23T03:24:36.121Z,81.5
2016-11-23T03:25:36.487Z,81.5
2016-11-23T03:26:36.864Z,81.5
2016-11-23T03:27:37.229Z,81.4
2016-11-23T03:28:37.590Z,81.5
2016-11-23T03:29:37.950Z,81.5
2016-11-23T03:30:38.317Z,81.5
2016-11-23T03:31:38.684Z,81.5
2016-11-23T03:32:39.057Z,81.5
2016-11-23T03:33:39.420Z,81.3
2016-11-23T03:34:39.782Z,81.5
2016-11-23T03:35:40.144Z,81.5
2016-11-23T03:36:40.509Z,81.8
2016-11-23T03:37:40.883Z,81.6
2016-11-23T03:38:41.252Z,81.5
2016-11-23T03:39:41.618Z,81.5
2016-11-23T03:40:42.014Z,82
2016-11-23T03:41:42.373Z,81.7
2016-11-23T03:42:42.731Z,81.7
2016-11-23T03:43:43.090Z,81.9
2016-11-23T03:44:43.451Z,81.7
2016-11-23T03:45:43.831Z,82.1
2016-11-23T03:46:44.197Z,82
2016-11-23T03:47:44.568Z,82.1
2016-11-23T03:48:44.942Z,82.1
2016-11-23T03:49:45.304Z,82.3
2016-11-23T03:50:45.710Z,82
2016-11-23T03:51:46.065Z,81.9
2016-11-23T03:52:46.422Z,82.3
2016-11-23T03:53:46.788Z,82.1
2016-11-23T03:54:47.159Z,82.1
2016-11-23T03:55:47.527Z,82
2016-11-23T03:56:47.897Z,82.1
2016-11-23T03:57:48.263Z,82.1
2016-11-23T03:58:48.620Z,82.2
2016-11-23T03:59:48.981Z,82.2
2016-11-23T04:00:49.452Z,82
2016-11-23T04:01:49.819Z,81.9
2016-11-23T04:02:50.183Z,82
2016-11-23T04:03:50.543Z,82.1
2016-11-23T04:04:50.931Z,82
2016-11-23T04:05:51.296Z,82
2016-11-23T04:06:51.661Z,82
2016-11-23T04:07:52.023Z,82.2
2016-11-23T04:08:52.391Z,82
2016-11-23T04:09:52.761Z,81.9
2016-11-23T04:10:53.122Z,82
2016-11-23T04:11:53.478Z,81.9
2016-11-23T04:12:53.835Z,81.9
2016-11-23T04:13:54.199Z,81.9
2016-11-23T04:14:54.569Z,81.9
2016-11-23T04:15:54.987Z,82
2016-11-23T04:16:55.356Z,82
2016-11-23T04:17:55.717Z,82.1
2016-11-23T04:18:56.077Z,81.9
2016-11-23T04:19:56.433Z,81.9
2016-11-23T04:20:56.792Z,82
2016-11-23T04:21:57.179Z,82
2016-11-23T04:22:57.543Z,81.9
2016-11-23T04:23:57.915Z,82.3
2016-11-23T04:24:58.286Z,82.1
2016-11-23T04:25:58.656Z,82.1
2016-11-23T04:26:59.022Z,81.9
2016-11-23T04:27:59.381Z,81.9
2016-11-23T04:28:59.737Z,82.2
2016-11-23T04:30:00.097Z,82
2016-11-23T04:31:00.466Z,82.2
2016-11-23T04:32:00.837Z,81.9
2016-11-23T04:33:01.197Z,81.9
2016-11-23T04:34:01.561Z,82.1
2016-11-23T04:35:01.932Z,82.1
2016-11-23T04:36:02.298Z,82.4
2016-11-23T04:37:02.662Z,82.5
2016-11-23T04:38:03.022Z,82.6
2016-11-23T04:39:03.382Z,82.4
2016-11-23T04:40:03.744Z,82.7
2016-11-23T04:41:04.105Z,82.2
2016-11-23T04:42:04.471Z,82.4
2016-11-23T04:43:04.842Z,82.5
2016-11-23T04:44:05.212Z,82
2016-11-23T04:45:05.611Z,81.4
2016-11-23T04:46:05.972Z,81.7
2016-11-23T04:47:06.328Z,81.3
2016-11-23T04:48:06.687Z,80.9
2016-11-23T04:49:07.048Z,80.9
2016-11-23T04:50:07.411Z,80.8
2016-11-23T04:51:07.781Z,81
2016-11-23T04:52:08.147Z,80.3
2016-11-23T04:53:08.513Z,80
2016-11-23T04:54:08.874Z,80.2
2016-11-23T04:55:09.230Z,80.2
2016-11-23T04:56:09.593Z,80.4
2016-11-23T04:57:09.949Z,80.2
2016-11-23T04:58:10.311Z,80.2
2016-11-23T04:59:10.682Z,80
2016-11-23T05:00:11.055Z,80.6
2016-11-23T05:01:11.426Z,80
2016-11-23T05:02:11.788Z,80.4
2016-11-23T05:03:12.150Z,80.6
2016-11-23T05:04:12.507Z,80.7
2016-11-23T05:05:12.866Z,80.8
2016-11-23T05:06:13.242Z,80.4
2016-11-23T05:07:13.612Z,80.6
2016-11-23T05:08:13.983Z,79.7
2016-11-23T05:09:14.351Z,80.3
2016-11-23T05:10:14.719Z,80.3
2016-11-23T05:11:15.410Z,80.1
2016-11-23T05:12:15.765Z,80.7
2016-11-23T05:13:16.120Z,80.3
2016-11-23T05:14:16.480Z,79.9
2016-11-23T05:15:16.850Z,80.2
2016-11-23T05:16:17.216Z,80
2016-11-23T05:17:17.586Z,80.6
2016-11-23T05:18:17.948Z,80.7
2016-11-23T05:19:18.304Z,80
2016-11-23T05:20:18.663Z,80.3
2016-11-23T05:21:19.022Z,80.6
2016-11-23T05:22:19.391Z,79.9
2016-11-23T05:23:19.756Z,80.5
2016-11-23T05:24:20.118Z,80
2016-11-23T05:25:20.480Z,80.2
2016-11-23T05:26:20.843Z,79.8
2016-11-23T05:27:21.200Z,80.3
2016-11-23T05:28:21.559Z,79.8
2016-11-23T05:29:21.919Z,80
2016-11-23T05:30:22.287Z,80
2016-11-23T05:31:22.684Z,76.2
2016-11-23T05:32:23.058Z,73.8
2016-11-23T05:33:23.429Z,78.6
2016-11-23T05:34:23.787Z,81
2016-11-23T05:35:24.143Z,82.5
2016-11-23T05:36:24.507Z,83.7
2016-11-23T05:37:24.873Z,84.8
2016-11-23T05:38:25.231Z,85.2
2016-11-23T05:39:25.587Z,84.6
2016-11-23T05:40:25.941Z,84.2
2016-11-23T05:41:26.297Z,84.2
2016-11-23T05:42:26.653Z,85.1
2016-11-23T05:43:27.019Z,85.7
2016-11-23T05:44:27.381Z,86.1
2016-11-23T05:45:27.752Z,86.8
2016-11-23T05:46:28.111Z,86.9
2016-11-23T05:47:28.464Z,87.5
2016-11-23T05:48:28.817Z,88.3
2016-11-23T05:49:29.169Z,89
2016-11-23T05:50:29.531Z,88.7
2016-11-23T05:51:29.897Z,87.9
2016-11-23T05:52:30.271Z,87.6
2016-11-23T05:53:30.633Z,87.7
2016-11-23T05:54:30.994Z,87.6
2016-11-23T05:55:31.350Z,88.5
2016-11-23T05:56:31.706Z,88.4
2016-11-23T05:57:32.067Z,88
2016-11-23T05:58:32.428Z,87.8
2016-11-23T05:59:32.786Z,93.3
2016-11-23T06:00:33.149Z,89.7
2016-11-23T06:01:33.621Z,84.3
2016-11-23T06:02:33.984Z,81.4
2016-11-23T06:03:34.338Z,80.4
2016-11-23T06:04:34.696Z,79.5
2016-11-23T06:05:35.050Z,79.7
2016-11-23T06:06:35.419Z,79.3
2016-11-23T06:07:35.785Z,79.8
2016-11-23T06:08:36.148Z,78.9
2016-11-23T06:09:36.510Z,79.1
2016-11-23T06:10:36.876Z,78.5
2016-11-23T06:11:37.247Z,78
2016-11-23T06:12:37.618Z,77.5
2016-11-23T06:13:37.997Z,76.8
2016-11-23T06:14:38.362Z,76.6
2016-11-23T06:15:38.718Z,75.9
2016-11-23T06:16:39.077Z,76
2016-11-23T06:17:39.436Z,75.7
2016-11-23T06:18:39.803Z,75.7
2016-11-23T06:19:40.170Z,75.9
2016-11-23T06:20:40.534Z,76
2016-11-23T06:21:40.901Z,75.9
2016-11-23T06:22:41.266Z,75.5
2016-11-23T06:23:41.624Z,75.5
2016-11-23T06:24:41.983Z,75.2
2016-11-23T06:25:42.340Z,75.2
2016-11-23T06:26:42.701Z,75.3
2016-11-23T06:27:43.067Z,74.5
2016-11-23T06:28:43.438Z,74.2
2016-11-23T06:29:43.810Z,74.2
2016-11-23T06:30:44.172Z,74.4
2016-11-23T06:31:44.632Z,74.1
2016-11-23T06:32:44.994Z,73.9
2016-11-23T06:33:45.362Z,74.1
2016-11-23T06:34:45.725Z,74.6
2016-11-23T06:35:46.094Z,74.7
2016-11-23T06:36:46.463Z,74.5
2016-11-23T06:37:46.833Z,74.3
2016-11-23T06:38:47.192Z,74.5
2016-11-23T06:39:47.545Z,74.4
2016-11-23T06:40:47.912Z,74.7
2016-11-23T06:41:48.280Z,75.2
2016-11-23T06:42:48.648Z,74.9
2016-11-23T06:43:49.007Z,75.3
2016-11-23T06:44:49.367Z,75.3
2016-11-23T06:45:49.732Z,75.4
2016-11-23T06:46:51.071Z,75.3
2016-11-23T06:47:51.706Z,75.6
2016-11-23T06:48:52.128Z,75.9
2016-11-23T06:49:52.500Z,75.7
2016-11-23T06:50:52.862Z,75.8
2016-11-23T06:51:53.218Z,75.9
2016-11-23T06:52:53.574Z,76.3
2016-11-23T06:53:53.935Z,76.3
2016-11-23T06:54:56.527Z,76.3
2016-11-23T06:55:56.901Z,76.3
2016-11-23T06:56:57.272Z,76.2
2016-11-23T06:57:57.644Z,76.3
2016-11-23T06:59:01.409Z,76
2016-11-23T07:00:01.776Z,76.1
2016-11-23T07:01:02.171Z,76
2016-11-23T07:02:02.540Z,76.1
2016-11-23T07:03:02.908Z,76
2016-11-23T07:04:03.274Z,76.6
2016-11-23T07:05:03.649Z,76.5
2016-11-23T07:06:04.021Z,76.8
2016-11-23T07:07:04.388Z,76.7
2016-11-23T07:08:04.750Z,76.8
2016-11-23T07:09:05.111Z,76.7
2016-11-23T07:10:05.468Z,76.7
2016-11-23T07:11:05.836Z,76.8
2016-11-23T07:12:06.205Z,76.3
2016-11-23T07:13:06.584Z,77.1
2016-11-23T07:14:06.962Z,77.2
2016-11-23T07:15:07.326Z,76.9
2016-11-23T07:16:07.684Z,77.1
2016-11-23T07:17:08.047Z,77.2
2016-11-23T07:18:08.416Z,77.3
2016-11-23T07:19:08.780Z,76.8
2016-11-23T07:20:09.148Z,77
2016-11-23T07:21:09.515Z,77.3
2016-11-23T07:22:09.883Z,77.1
2016-11-23T07:23:10.245Z,77
2016-11-23T07:24:10.647Z,77.1
2016-11-23T07:25:11.356Z,77.4
2016-11-23T07:26:11.713Z,77.2
2016-11-23T07:27:12.079Z,77.6
2016-11-23T07:28:12.449Z,77.3
2016-11-23T07:29:12.817Z,77.4
2016-11-23T07:30:13.184Z,77.9
2016-11-23T07:31:13.548Z,77.5
2016-11-23T07:32:13.907Z,77.4
2016-11-23T07:33:14.263Z,77.4
2016-11-23T07:34:14.626Z,77.8
2016-11-23T07:35:14.986Z,77.9
2016-11-23T07:36:15.356Z,77.2
2016-11-23T07:37:16.146Z,77.4
2016-11-23T07:38:17.080Z,77.2
2016-11-23T07:39:17.448Z,76.9
2016-11-23T07:40:17.809Z,77.3
2016-11-23T07:41:18.170Z,77.5
2016-11-23T07:42:18.532Z,77.7
2016-11-23T07:43:18.894Z,77.2
2016-11-23T07:44:19.266Z,77.6
2016-11-23T07:45:19.628Z,77.8
2016-11-23T07:46:19.987Z,77.8
2016-11-23T07:47:20.352Z,77.2
2016-11-23T07:48:20.721Z,77.2
2016-11-23T07:49:21.088Z,77.5
2016-11-23T07:50:21.457Z,77.4
2016-11-23T07:51:21.817Z,77.4
2016-11-23T07:52:22.178Z,77.2
2016-11-23T07:53:22.538Z,77.4
2016-11-23T07:54:22.893Z,77.5
2016-11-23T07:55:23.255Z,77.3
2016-11-23T07:56:23.644Z,77.5
2016-11-23T07:57:24.015Z,77
2016-11-23T07:58:24.385Z,76.7
2016-11-23T07:59:24.755Z,76.9
2016-11-23T08:00:25.111Z,76.9
2016-11-23T08:01:25.467Z,76.9
2016-11-23T08:02:25.832Z,76.7
2016-11-23T08:03:26.198Z,76.8
2016-11-23T08:04:26.568Z,77
2016-11-23T08:05:26.939Z,76.5
2016-11-23T08:06:27.304Z,76.9
2016-11-23T08:07:27.667Z,77
2016-11-23T08:08:28.027Z,77.1
2016-11-23T08:09:28.386Z,77.1
2016-11-23T08:10:28.747Z,77.4
2016-11-23T08:11:29.110Z,77.3
2016-11-23T08:12:29.480Z,77.1
2016-11-23T08:13:29.855Z,76.5
2016-11-23T08:14:30.222Z,76.7
2016-11-23T08:15:30.585Z,76.8
2016-11-23T08:16:30.941Z,76.6
2016-11-23T08:17:31.307Z,76.8
2016-11-23T08:18:31.674Z,76.7
2016-11-23T08:19:32.037Z,76.6
2016-11-23T08:20:32.401Z,76.6
2016-11-23T08:21:32.763Z,76.8
2016-11-23T08:22:33.126Z,76.7
2016-11-23T08:23:33.490Z,77
2016-11-23T08:24:33.856Z,76.7
2016-11-23T08:25:34.222Z,76.4
2016-11-23T08:26:34.589Z,76.6
2016-11-23T08:27:34.951Z,77.1
2016-11-23T08:28:35.310Z,77.1
2016-11-23T08:29:35.668Z,77.2
2016-11-23T08:30:36.025Z,77.3
2016-11-23T08:31:36.388Z,77.4
2016-11-23T08:32:36.759Z,76.9
2016-11-23T08:33:37.122Z,76.3
2016-11-23T08:34:37.485Z,76.6
2016-11-23T08:35:37.843Z,76.5
2016-11-23T08:36:38.198Z,76.7
2016-11-23T08:37:38.556Z,76.7
2016-11-23T08:38:38.915Z,76.7
2016-11-23T08:39:39.282Z,76.7
2016-11-23T08:40:39.649Z,76.7
2016-11-23T08:41:40.027Z,76.6
2016-11-23T08:42:40.399Z,76.5
2016-11-23T08:43:40.765Z,76.9
2016-11-23T08:44:41.125Z,76.9
2016-11-23T08:45:41.483Z,76.8
2016-11-23T08:46:41.848Z,76.9
2016-11-23T08:47:42.212Z,76.7
2016-11-23T08:48:42.587Z,76.8
2016-11-23T08:49:42.956Z,77.1
2016-11-23T08:50:43.319Z,77
2016-11-23T08:51:43.689Z,77
2016-11-23T08:52:44.057Z,76.5
2016-11-23T08:53:44.430Z,76.7
2016-11-23T08:54:44.801Z,76.6
2016-11-23T08:55:45.166Z,76.7
2016-11-23T08:56:45.533Z,77
2016-11-23T08:57:45.892Z,77
2016-11-23T08:58:46.250Z,76.9
2016-11-23T08:59:46.613Z,76.4
2016-11-23T09:00:46.984Z,76.6
2016-11-23T09:01:47.354Z,76.8
2016-11-23T09:02:47.826Z,76.7
2016-11-23T09:03:48.193Z,76.8
2016-11-23T09:04:48.586Z,76.5
2016-11-23T09:05:48.946Z,76.4
2016-11-23T09:06:49.304Z,76.7
2016-11-23T09:07:49.667Z,76.6
2016-11-23T09:08:50.039Z,76.5
2016-11-23T09:09:50.415Z,76.6
2016-11-23T09:10:50.780Z,76.5
2016-11-23T09:11:51.139Z,76.6
2016-11-23T09:12:51.494Z,76.8
2016-11-23T09:13:51.855Z,76.9
2016-11-23T09:14:52.219Z,76.7
2016-11-23T09:15:52.584Z,76.8
2016-11-23T09:16:52.955Z,76.9
2016-11-23T09:17:53.328Z,76.7
2016-11-23T09:18:53.701Z,76.8
2016-11-23T09:19:54.061Z,76.8
2016-11-23T09:20:54.416Z,76.8
2016-11-23T09:21:54.776Z,76.7
2016-11-23T09:22:55.134Z,76.8
2016-11-23T09:23:55.499Z,76.8
2016-11-23T09:24:55.868Z,76.9
2016-11-23T09:25:56.245Z,76.6
2016-11-23T09:26:56.620Z,76.6
2016-11-23T09:27:56.986Z,76.7
2016-11-23T09:28:57.347Z,76.9
2016-11-23T09:29:57.706Z,76.8
2016-11-23T09:30:58.065Z,76.6
2016-11-23T09:31:58.431Z,77
2016-11-23T09:32:58.795Z,76.2
2016-11-23T09:33:59.169Z,76.3
2016-11-23T09:34:59.539Z,76.9
2016-11-23T09:35:59.907Z,76.8
2016-11-23T09:37:00.262Z,76.7
2016-11-23T09:38:00.629Z,76.8
2016-11-23T09:39:00.987Z,76.7
2016-11-23T09:40:01.356Z,76.6
2016-11-23T09:41:01.731Z,76.7
2016-11-23T09:42:02.448Z,76.9
2016-11-23T09:43:02.816Z,76.9
2016-11-23T09:44:03.179Z,76.9
2016-11-23T09:45:03.542Z,76.9
2016-11-23T09:46:03.901Z,76.6
2016-11-23T09:47:04.265Z,76.9
2016-11-23T09:48:04.631Z,76.5
2016-11-23T09:49:05.001Z,76.8
2016-11-23T09:50:05.373Z,76.5
2016-11-23T09:51:05.743Z,77
2016-11-23T09:52:06.108Z,76.2
2016-11-23T09:53:06.467Z,76.6
2016-11-23T09:54:06.835Z,76.9
2016-11-23T09:55:07.211Z,76.9
2016-11-23T09:56:07.601Z,76.7
2016-11-23T09:57:07.961Z,76.7
2016-11-23T09:58:08.327Z,76.7
2016-11-23T09:59:08.687Z,76.9
2016-11-23T10:00:09.052Z,76.5
2016-11-23T10:01:09.417Z,76.7
2016-11-23T10:02:09.784Z,76.7
2016-11-23T10:03:10.249Z,76.9
2016-11-23T10:04:10.618Z,76.5
2016-11-23T10:05:10.976Z,76.5
2016-11-23T10:06:11.338Z,76.6
2016-11-23T10:07:11.698Z,76.8
2016-11-23T10:08:12.061Z,76.5
2016-11-23T10:09:12.432Z,76.9
2016-11-23T10:10:12.804Z,76.8
2016-11-23T10:11:13.169Z,77
2016-11-23T10:12:13.536Z,76.2
2016-11-23T10:13:13.892Z,77
2016-11-23T10:14:14.249Z,76.5
2016-11-23T10:15:14.609Z,76.6
2016-11-23T10:16:14.975Z,76.6
2016-11-23T10:17:15.344Z,77
2016-11-23T10:18:15.717Z,76.8
2016-11-23T10:19:16.097Z,76.8
2016-11-23T10:20:16.462Z,76.7
2016-11-23T10:21:16.818Z,76.6
2016-11-23T10:22:17.177Z,76.8
2016-11-23T10:23:17.534Z,76.5
2016-11-23T10:24:17.894Z,76.9
2016-11-23T10:25:18.263Z,76.4
2016-11-23T10:26:18.628Z,76.8
2016-11-23T10:27:18.989Z,76.9
2016-11-23T10:28:19.356Z,77
2016-11-23T10:29:19.728Z,76.5
2016-11-23T10:30:20.103Z,76.8
2016-11-23T10:31:20.474Z,76.7
2016-11-23T10:32:20.835Z,76.4
2016-11-23T10:33:21.195Z,76.6
2016-11-23T10:34:21.551Z,76.4
2016-11-23T10:35:21.917Z,76.3
2016-11-23T10:36:22.289Z,76.8
2016-11-23T10:37:22.663Z,76.8
2016-11-23T10:38:23.030Z,76.7
2016-11-23T10:39:23.400Z,76.7
2016-11-23T10:40:23.763Z,76.7
2016-11-23T10:41:24.152Z,76.9
2016-11-23T10:42:24.509Z,76.9
2016-11-23T10:43:24.868Z,76.7
2016-11-23T10:44:25.233Z,76.8
2016-11-23T10:45:25.602Z,76.7
2016-11-23T10:46:25.977Z,76.9
2016-11-23T10:47:26.354Z,76.3
2016-11-23T10:48:26.722Z,76.5
2016-11-23T10:49:27.090Z,76.3
2016-11-23T10:50:27.456Z,76.4
2016-11-23T10:51:27.817Z,76.5
2016-11-23T10:52:28.185Z,76.6
2016-11-23T10:53:28.560Z,76.4
2016-11-23T10:54:28.927Z,76.5
2016-11-23T10:55:29.291Z,77
2016-11-23T10:56:29.657Z,76.8
2016-11-23T10:57:30.015Z,76.7
2016-11-23T10:58:30.378Z,76.8
2016-11-23T10:59:30.749Z,76.9
2016-11-23T11:00:31.111Z,76.9
2016-11-23T11:01:31.471Z,76.6
2016-11-23T11:02:31.831Z,76.9
2016-11-23T11:03:32.192Z,76.6
2016-11-23T11:04:32.561Z,76.5
2016-11-23T11:05:32.930Z,76.9
2016-11-23T11:06:33.299Z,76.6
2016-11-23T11:07:33.668Z,76.7
2016-11-23T11:08:34.079Z,76.3
2016-11-23T11:09:34.441Z,76
2016-11-23T11:10:34.801Z,76.4
2016-11-23T11:11:35.159Z,76.3
2016-11-23T11:12:35.522Z,77.1
2016-11-23T11:13:35.894Z,76.8
2016-11-23T11:14:36.260Z,76.7
2016-11-23T11:15:36.630Z,76.5
2016-11-23T11:16:36.999Z,76.6
2016-11-23T11:17:37.360Z,77
2016-11-23T11:18:37.721Z,76.9
2016-11-23T11:19:38.079Z,76.9
2016-11-23T11:20:38.443Z,76.5
2016-11-23T11:21:38.813Z,76.3
2016-11-23T11:22:39.183Z,76.6
2016-11-23T11:23:39.554Z,76.5
2016-11-23T11:24:39.915Z,76.5
2016-11-23T11:25:40.275Z,76.9
2016-11-23T11:26:40.632Z,76.7
2016-11-23T11:27:40.995Z,76.5
2016-11-23T11:28:41.359Z,76.7
2016-11-23T11:29:41.726Z,76.1
2016-11-23T11:30:42.090Z,76.4
2016-11-23T11:31:42.447Z,76
2016-11-23T11:32:42.812Z,76.4
2016-11-23T11:33:43.186Z,76.7
2016-11-23T11:34:43.556Z,76.7
2016-11-23T11:35:43.925Z,76.7
2016-11-23T11:36:44.321Z,76.5
2016-11-23T11:37:44.677Z,76.4
2016-11-23T11:38:45.037Z,76.8
2016-11-23T11:39:45.403Z,77
2016-11-23T11:40:45.774Z,76.9
2016-11-23T11:41:46.151Z,76.5
2016-11-23T11:42:46.529Z,76.9
2016-11-23T11:43:46.899Z,76.9
2016-11-23T11:44:47.261Z,76.6
2016-11-23T11:45:47.629Z,76.9
2016-11-23T11:46:47.991Z,77.1
2016-11-23T11:47:48.349Z,76.9
2016-11-23T11:48:48.712Z,76.7
2016-11-23T11:49:49.084Z,76.8
2016-11-23T11:50:49.456Z,76.9
2016-11-23T11:51:49.822Z,76.9
2016-11-23T11:52:50.187Z,76.6
2016-11-23T11:53:50.545Z,76.9
2016-11-23T11:54:50.935Z,76.7
2016-11-23T11:55:51.291Z,76.4
2016-11-23T11:56:51.654Z,76.5
2016-11-23T11:57:52.024Z,76.7
2016-11-23T11:58:52.395Z,76.3
2016-11-23T11:59:52.775Z,76.5
2016-11-23T12:00:53.143Z,77
2016-11-23T12:01:53.504Z,76.7
2016-11-23T12:02:53.870Z,76.8
2016-11-23T12:03:54.239Z,76.6
2016-11-23T12:04:54.606Z,76.7
2016-11-23T12:05:54.974Z,76.7
2016-11-23T12:06:55.331Z,76.4
2016-11-23T12:07:55.691Z,76.9
2016-11-23T12:08:56.057Z,76.9
2016-11-23T12:09:56.428Z,76.6
2016-11-23T12:10:56.828Z,76.7
2016-11-23T12:11:57.198Z,76.5
2016-11-23T12:12:57.562Z,76.6
2016-11-23T12:13:57.920Z,76.7
2016-11-23T12:14:58.277Z,76.9
2016-11-23T12:15:58.641Z,76.8
2016-11-23T12:16:59.014Z,76.6
2016-11-23T12:17:59.380Z,76.8
2016-11-23T12:18:59.748Z,77
2016-11-23T12:20:00.125Z,76.8
2016-11-23T12:21:00.827Z,77
2016-11-23T12:22:01.187Z,76.5
2016-11-23T12:23:01.553Z,76.9
2016-11-23T12:24:01.913Z,76.7
2016-11-23T12:25:02.280Z,76.7
2016-11-23T12:26:02.650Z,76.7
2016-11-23T12:27:03.023Z,76.6
2016-11-23T12:28:03.391Z,77
2016-11-23T12:29:03.756Z,76.7
2016-11-23T12:30:04.115Z,76.4
2016-11-23T12:31:04.491Z,76.7
2016-11-23T12:32:04.852Z,77.3
2016-11-23T12:33:05.219Z,77.6
2016-11-23T12:34:05.619Z,77.4
2016-11-23T12:35:05.987Z,77.8
2016-11-23T12:36:08.751Z,77.9
2016-11-23T12:37:09.117Z,77.8
2016-11-23T12:38:10.188Z,77.9
2016-11-23T12:39:10.566Z,77.5
2016-11-23T12:40:10.936Z,77.4
2016-11-23T12:41:11.299Z,77.2
2016-11-23T12:42:11.660Z,77.1
2016-11-23T12:43:12.024Z,76.6
2016-11-23T12:44:12.392Z,76.6
2016-11-23T12:45:12.759Z,76.9
2016-11-23T12:46:13.131Z,77.2
2016-11-23T12:47:13.501Z,77.3
2016-11-23T12:48:13.875Z,77.4
2016-11-23T12:49:14.240Z,77.2
2016-11-23T12:50:14.629Z,77.9
2016-11-23T12:51:14.988Z,77.5
2016-11-23T12:52:15.343Z,77.7
2016-11-23T12:53:15.713Z,77.4
2016-11-23T12:54:16.086Z,77.6
2016-11-23T12:55:16.455Z,77.9
2016-11-23T12:56:16.827Z,77.7
2016-11-23T12:57:17.191Z,77.5
2016-11-23T12:58:17.556Z,77.5
2016-11-23T12:59:17.921Z,77.7
2016-11-23T13:00:18.281Z,77.4
2016-11-23T13:01:18.647Z,77.3
2016-11-23T13:02:19.025Z,77.4
2016-11-23T13:03:19.395Z,77.6
2016-11-23T13:04:19.768Z,77.3
2016-11-23T13:05:20.132Z,77.4
2016-11-23T13:06:20.490Z,77.6
2016-11-23T13:07:20.855Z,77.7
2016-11-23T13:08:21.227Z,77.7
2016-11-23T13:09:21.591Z,77.7
2016-11-23T13:10:21.987Z,77.8
2016-11-23T13:11:22.349Z,77.5
2016-11-23T13:12:22.709Z,77.5
2016-11-23T13:13:23.075Z,78.1
2016-11-23T13:14:23.446Z,78.2
2016-11-23T13:15:23.819Z,78.1
2016-11-23T13:16:24.190Z,77.9
2016-11-23T13:17:24.560Z,78.4
2016-11-23T13:18:24.925Z,78
2016-11-23T13:19:25.289Z,78.5
2016-11-23T13:20:25.654Z,78.5
2016-11-23T13:21:26.030Z,78.2
2016-11-23T13:22:26.402Z,78.1
2016-11-23T13:23:26.774Z,78
2016-11-23T13:24:27.177Z,77.8
2016-11-23T13:25:27.547Z,77.6
2016-11-23T13:26:27.942Z,77.5
2016-11-23T13:27:28.304Z,77.5
2016-11-23T13:28:28.664Z,78.1
2016-11-23T13:29:29.332Z,78.1